Time;durP1;ratioP1;P1;durP2;ratioP2;P2;SDS_P1;SDS_P2;PMS_P1;PMS_P2;Temp;Humidity;BMP_temperature;BMP_pressure;BME280_temperature;BME280_humidity;BME280_pressure;Samples;Min_cycle;Max_cycle;Signal;HPM_P1;HPM_P2
2021/12/08 00:01:24;;;;;;;9.67;5.50;;;5.30;99.90;;;;;;5101445;28;20240;-81
2021/12/08 00:03:52;;;;;;;7.90;5.67;;;5.30;99.90;;;;;;5110539;28;20204;-82
2021/12/08 00:06:19;;;;;;;8.37;5.57;;;5.30;99.90;;;;;;5110577;28;20192;-83
2021/12/08 00:08:59;;;;;;;9.27;5.73;;;5.40;99.90;;;;;;5094344;28;20281;-84
2021/12/08 00:14:12;;;;;;;10.20;5.57;;;5.40;99.90;;;;;;5097328;28;20219;-80
2021/12/08 00:16:39;;;;;;;7.93;5.63;;;5.40;99.90;;;;;;5109995;28;20196;-81
2021/12/08 00:19:06;;;;;;;8.63;5.90;;;5.40;99.90;;;;;;5109898;28;20208;-83
2021/12/08 00:21:33;;;;;;;10.43;5.53;;;5.40;99.90;;;;;;5109277;28;20196;-79
2021/12/08 00:24:00;;;;;;;8.93;6.17;;;5.40;99.90;;;;;;5109700;28;20204;-79
2021/12/08 00:26:28;;;;;;;8.77;6.40;;;5.50;99.90;;;;;;5097486;28;20207;-86
2021/12/08 00:28:55;;;;;;;8.17;5.60;;;5.50;99.90;;;;;;5089086;28;20225;-80
2021/12/08 00:31:22;;;;;;;9.63;5.87;;;5.50;99.90;;;;;;5089386;28;20610;-85
2021/12/08 00:33:49;;;;;;;8.40;6.20;;;5.50;99.90;;;;;;5089367;28;20224;-85
2021/12/08 00:36:18;;;;;;;11.97;6.60;;;5.50;99.90;;;;;;5089185;28;20201;-82
2021/12/08 00:38:44;;;;;;;9.93;7.00;;;5.50;99.90;;;;;;5089472;28;20295;-83
2021/12/08 00:41:12;;;;;;;11.90;6.70;;;5.60;99.90;;;;;;5089704;28;20204;-79
2021/12/08 00:43:42;;;;;;;11.70;7.80;;;5.50;99.90;;;;;;5089096;28;20196;-84
2021/12/08 00:46:09;;;;;;;12.83;7.67;;;5.60;99.90;;;;;;5089210;28;20200;-83
2021/12/08 00:48:36;;;;;;;11.40;7.63;;;5.60;99.90;;;;;;5088821;28;20212;-79
2021/12/08 00:51:03;;;;;;;8.90;7.70;;;5.60;99.90;;;;;;5088403;28;20192;-80
2021/12/08 00:53:30;;;;;;;12.00;8.73;;;5.60;99.90;;;;;;5089244;28;20228;-86
2021/12/08 00:55:57;;;;;;;13.70;8.13;;;5.60;99.90;;;;;;5089190;28;20614;-82
2021/12/08 00:58:24;;;;;;;10.47;8.60;;;5.70;99.90;;;;;;5088366;28;20188;-87
2021/12/08 01:00:53;;;;;;;12.63;8.77;;;5.70;99.90;;;;;;5089371;28;20244;-83
2021/12/08 01:03:21;;;;;;;10.80;8.70;;;5.60;99.90;;;;;;5088501;28;20203;-85
2021/12/08 01:05:51;;;;;;;12.93;9.33;;;5.70;99.90;;;;;;5089443;28;20808;-78
2021/12/08 01:08:19;;;;;;;12.93;9.87;;;5.70;99.90;;;;;;5089434;28;20200;-87
2021/12/08 01:10:50;;;;;;;12.80;9.20;;;5.70;99.90;;;;;;5089279;28;20303;-85
2021/12/08 01:13:18;;;;;;;10.60;9.00;;;5.80;99.90;;;;;;5089110;28;20547;-86
2021/12/08 01:15:48;;;;;;;13.10;10.53;;;5.70;99.90;;;;;;5089326;28;20200;-83
2021/12/08 01:18:18;;;;;;;14.20;11.30;;;5.80;99.90;;;;;;5087255;28;20200;-82
2021/12/08 01:20:46;;;;;;;15.43;10.60;;;5.80;99.90;;;;;;5092205;28;20518;-79
2021/12/08 01:23:14;;;;;;;16.87;11.87;;;5.80;99.90;;;;;;5108748;28;20196;-86
2021/12/08 01:25:41;;;;;;;14.70;11.03;;;5.80;99.90;;;;;;5107485;28;20203;-81
2021/12/08 01:28:07;;;;;;;17.77;12.37;;;5.80;99.90;;;;;;5108366;28;20208;-81
2021/12/08 01:30:34;;;;;;;16.17;11.77;;;5.90;99.90;;;;;;5095680;28;20520;-79
2021/12/08 01:33:02;;;;;;;15.43;11.13;;;5.90;99.90;;;;;;5087702;28;20204;-84
2021/12/08 01:35:30;;;;;;;16.03;11.00;;;5.90;99.90;;;;;;5087871;28;20612;-80
2021/12/08 01:37:57;;;;;;;15.87;11.57;;;5.90;99.90;;;;;;5087794;28;20205;-86
2021/12/08 01:40:24;;;;;;;15.83;11.40;;;6.00;99.90;;;;;;5087056;28;20201;-88
2021/12/08 01:42:53;;;;;;;17.17;12.27;;;5.90;99.90;;;;;;5104799;28;20223;-86
2021/12/08 01:48:10;;;;;;;19.43;12.60;;;6.00;99.90;;;;;;5108517;28;20684;-87
2021/12/08 01:50:39;;;;;;;15.13;11.43;;;6.00;99.90;;;;;;5088672;28;20215;-85
2021/12/08 01:53:07;;;;;;;16.20;12.20;;;6.00;99.90;;;;;;5087743;28;20257;-83
2021/12/08 01:55:34;;;;;;;19.00;12.90;;;6.10;99.90;;;;;;5087887;28;20220;-81
2021/12/08 01:58:01;;;;;;;13.63;9.97;;;6.10;99.90;;;;;;5089073;28;20216;-80
2021/12/08 02:00:32;;;;;;;10.30;7.60;;;6.10;99.90;;;;;;5094074;28;20234;-84
2021/12/08 02:02:59;;;;;;;9.63;5.07;;;6.20;99.90;;;;;;5109672;28;20192;-80
2021/12/08 02:05:26;;;;;;;7.00;3.53;;;6.10;99.90;;;;;;5091186;28;20212;-77
2021/12/08 02:07:55;;;;;;;5.93;3.50;;;6.10;99.90;;;;;;5095853;28;20196;-80
2021/12/08 02:10:22;;;;;;;5.57;2.20;;;6.10;99.90;;;;;;5108046;28;20204;-79
2021/12/08 02:12:49;;;;;;;3.77;1.47;;;6.10;99.90;;;;;;5108730;28;20204;-80
2021/12/08 02:15:18;;;;;;;5.33;1.50;;;6.00;99.90;;;;;;5096486;28;20290;-78
2021/12/08 02:17:46;;;;;;;5.50;1.80;;;6.00;99.90;;;;;;5092076;28;20236;-81
2021/12/08 02:20:15;;;;;;;5.67;2.60;;;6.00;99.90;;;;;;5092798;28;20201;-80
2021/12/08 02:22:43;;;;;;;10.13;3.10;;;6.00;99.90;;;;;;5092105;28;20211;-84
2021/12/08 02:25:12;;;;;;;9.73;4.83;;;6.00;99.90;;;;;;5092747;28;20208;-78
2021/12/08 02:27:39;;;;;;;11.30;6.07;;;6.00;99.90;;;;;;5091710;28;20232;-85
2021/12/08 02:30:15;;;;;;;10.90;6.90;;;6.10;99.90;;;;;;5092824;28;20200;-79
2021/12/08 02:46:44;;;;;;;8.93;2.10;;;6.30;99.90;;;;;;5109502;28;20530;-83
2021/12/08 02:49:11;;;;;;;12.17;1.80;;;6.30;99.90;;;;;;5090484;28;20201;-80
2021/12/08 02:51:38;;;;;;;6.23;1.37;;;6.30;99.90;;;;;;5089979;28;20519;-79
2021/12/08 02:54:06;;;;;;;8.20;2.67;;;6.30;99.90;;;;;;5091295;28;20698;-81
2021/12/08 02:56:33;;;;;;;9.23;1.50;;;6.30;99.90;;;;;;5089223;28;20273;-79
2021/12/08 02:59:00;;;;;;;3.33;0.97;;;6.20;99.90;;;;;;5090672;28;20201;-79
2021/12/08 03:01:28;;;;;;;7.27;1.57;;;6.20;99.90;;;;;;5091219;28;20235;-78
2021/12/08 03:03:55;;;;;;;4.93;1.20;;;6.20;99.90;;;;;;5090639;28;20192;-80
2021/12/08 03:06:22;;;;;;;7.60;1.43;;;6.20;99.90;;;;;;5099214;28;20218;-83
2021/12/08 03:08:49;;;;;;;12.13;1.63;;;6.20;99.90;;;;;;5111265;28;20200;-88
2021/12/08 03:11:17;;;;;;;10.13;1.57;;;6.20;99.90;;;;;;5110743;28;20215;-81
2021/12/08 03:14:00;;;;;;;8.30;1.90;;;6.10;99.90;;;;;;5110255;28;20235;-81
2021/12/08 03:16:27;;;;;;;6.57;1.10;;;6.20;99.90;;;;;;5110927;28;20199;-80
2021/12/08 03:18:54;;;;;;;7.20;0.90;;;6.10;99.90;;;;;;5109049;28;20854;-79
2021/12/08 03:21:27;;;;;;;6.53;1.53;;;6.20;99.90;;;;;;5089941;28;20205;-91
2021/12/08 03:24:05;;;;;;;5.40;1.23;;;6.10;99.90;;;;;;5090182;28;20559;-82
2021/12/08 03:26:35;;;;;;;7.43;1.30;;;6.20;99.90;;;;;;5095160;28;20265;-86
2021/12/08 03:29:14;;;;;;;6.33;1.20;;;6.10;99.90;;;;;;5111258;28;20269;-80
2021/12/08 03:31:43;;;;;;;6.40;1.20;;;6.10;99.90;;;;;;5103663;28;20207;-82
2021/12/08 03:34:11;;;;;;;2.80;1.37;;;6.10;99.90;;;;;;5090459;28;20624;-84
2021/12/08 03:36:38;;;;;;;4.93;1.27;;;6.10;99.90;;;;;;5090144;28;20197;-85
2021/12/08 03:39:06;;;;;;;4.60;1.37;;;6.10;99.90;;;;;;5090097;28;20201;-78
2021/12/08 03:41:35;;;;;;;4.37;1.00;;;6.10;99.90;;;;;;5090035;28;21085;-83
2021/12/08 03:44:03;;;;;;;3.30;1.07;;;6.10;99.90;;;;;;5090943;28;20196;-79
2021/12/08 03:46:32;;;;;;;2.73;1.00;;;6.10;99.90;;;;;;5109009;28;20196;-79
2021/12/08 03:49:00;;;;;;;7.13;1.73;;;6.20;99.90;;;;;;5097581;28;20236;-81
2021/12/08 03:51:27;;;;;;;5.07;1.30;;;6.10;99.90;;;;;;5089563;28;20204;-80
2021/12/08 03:53:54;;;;;;;7.13;1.47;;;6.10;99.90;;;;;;5089591;28;20196;-81
2021/12/08 03:56:21;;;;;;;6.77;1.90;;;6.10;99.90;;;;;;5103049;22;20242;-80
2021/12/08 03:58:49;;;;;;;5.83;2.37;;;6.10;99.90;;;;;;5091743;28;20616;-80
2021/12/08 04:01:16;;;;;;;4.17;2.00;;;6.10;99.90;;;;;;5090746;28;20266;-87
2021/12/08 04:03:49;;;;;;;6.93;2.97;;;6.10;99.90;;;;;;5090612;28;20226;-83
2021/12/08 04:06:28;;;;;;;5.17;2.33;;;6.10;99.90;;;;;;5090868;28;20254;-82
2021/12/08 04:08:56;;;;;;;7.93;2.73;;;6.00;99.90;;;;;;5091394;28;20196;-83
2021/12/08 04:11:25;;;;;;;7.97;2.93;;;6.00;99.90;;;;;;5091074;28;20201;-82
2021/12/08 04:13:58;;;;;;;6.10;3.03;;;6.00;99.90;;;;;;5091385;28;20204;-87
2021/12/08 04:16:28;;;;;;;7.73;3.63;;;6.00;99.90;;;;;;5091563;28;20204;-80
2021/12/08 04:18:57;;;;;;;8.57;3.77;;;6.00;99.90;;;;;;5092393;28;20207;-82
2021/12/08 04:21:25;;;;;;;7.13;3.80;;;5.90;99.90;;;;;;5093983;28;20283;-84
2021/12/08 04:23:52;;;;;;;7.47;3.40;;;5.90;99.90;;;;;;5095152;28;20224;-80
2021/12/08 04:26:22;;;;;;;8.40;3.30;;;6.00;99.90;;;;;;5093438;28;20204;-79
2021/12/08 04:28:49;;;;;;;7.00;2.80;;;6.00;99.90;;;;;;5093821;28;20228;-79
2021/12/08 04:31:20;;;;;;;6.40;2.63;;;6.00;99.90;;;;;;5093542;28;20197;-86
2021/12/08 04:33:52;;;;;;;4.77;2.30;;;5.90;99.90;;;;;;5088879;28;20513;-79
2021/12/08 04:36:19;;;;;;;6.87;3.17;;;5.90;99.90;;;;;;5087497;28;20202;-77
2021/12/08 04:38:51;;;;;;;4.83;2.37;;;5.90;99.90;;;;;;5088084;28;20211;-78
2021/12/08 04:41:26;;;;;;;5.83;2.50;;;5.80;99.90;;;;;;5087614;28;20207;-80
2021/12/08 04:44:01;;;;;;;6.60;2.30;;;5.80;99.90;;;;;;5089093;28;20216;-78
2021/12/08 04:46:48;;;;;;;4.40;2.00;;;5.80;99.90;;;;;;5088576;28;20211;-80
2021/12/08 04:49:32;;;;;;;5.90;2.20;;;5.80;99.90;;;;;;5088534;28;20202;-78
2021/12/08 04:52:06;;;;;;;9.47;2.17;;;5.80;99.90;;;;;;5088534;28;20200;-87
2021/12/08 05:00:30;;;;;;;8.83;2.03;;;5.70;99.90;;;;;;5088044;28;20243;-80
2021/12/08 05:03:23;;;;;;;6.47;2.33;;;5.70;99.90;;;;;;5087450;28;20289;-82
2021/12/08 05:06:19;;;;;;;5.40;2.37;;;5.60;99.90;;;;;;5099273;28;20226;-80
2021/12/08 05:08:47;;;;;;;9.03;2.90;;;5.60;99.90;;;;;;5108192;28;20206;-81
2021/12/08 05:11:23;;;;;;;10.83;2.30;;;5.60;99.90;;;;;;5108021;28;20216;-80
2021/12/08 05:13:54;;;;;;;4.97;2.63;;;5.50;99.90;;;;;;5105120;28;20215;-77
2021/12/08 05:16:22;;;;;;;8.17;3.27;;;5.50;99.90;;;;;;5087781;28;20546;-79
2021/12/08 05:18:53;;;;;;;9.67;2.93;;;5.50;99.90;;;;;;5087845;28;20231;-78
2021/12/08 05:21:28;;;;;;;5.67;2.80;;;5.40;99.90;;;;;;5087952;28;20243;-79
2021/12/08 05:23:59;;;;;;;8.00;3.17;;;5.40;99.90;;;;;;5088599;28;20791;-86
2021/12/08 05:26:32;;;;;;;12.30;5.10;;;5.40;99.90;;;;;;5091720;28;20200;-82
2021/12/08 05:29:04;;;;;;;6.33;3.10;;;5.30;99.90;;;;;;5109012;28;20231;-83
2021/12/08 05:31:32;;;;;;;12.23;4.20;;;5.30;99.90;;;;;;5109041;28;20188;-86
2021/12/08 05:34:01;;;;;;;9.70;4.10;;;5.30;99.90;;;;;;5108578;28;20200;-80
2021/12/08 05:36:28;;;;;;;6.27;2.80;;;5.30;99.90;;;;;;5091144;28;20228;-84
2021/12/08 05:38:58;;;;;;;6.20;2.93;;;5.20;99.90;;;;;;5088178;28;20217;-79
2021/12/08 05:41:28;;;;;;;8.30;2.90;;;5.20;99.90;;;;;;5107732;28;20603;-81
2021/12/08 05:43:55;;;;;;;5.70;2.90;;;5.20;99.90;;;;;;5109157;28;20200;-79
2021/12/08 05:46:25;;;;;;;8.67;3.00;;;5.20;99.90;;;;;;5105833;28;20207;-85
2021/12/08 05:48:52;;;;;;;8.50;2.70;;;5.20;99.90;;;;;;5091041;28;20196;-81
2021/12/08 05:51:24;;;;;;;10.43;3.20;;;5.20;99.90;;;;;;5092106;28;20195;-79
2021/12/08 05:53:55;;;;;;;10.53;3.57;;;5.20;99.90;;;;;;5091944;28;20200;-80
2021/12/08 05:56:23;;;;;;;11.37;4.40;;;5.10;99.90;;;;;;5090375;28;20240;-82
2021/12/08 05:58:53;;;;;;;11.30;3.80;;;5.10;99.90;;;;;;5090686;28;20279;-85
2021/12/08 06:01:23;;;;;;;8.13;4.13;;;5.20;99.90;;;;;;5091555;28;20204;-80
2021/12/08 06:03:51;;;;;;;11.80;4.23;;;5.20;99.90;;;;;;5091199;28;20204;-80
2021/12/08 06:06:21;;;;;;;10.87;4.47;;;5.20;99.90;;;;;;5091083;28;20200;-81
2021/12/08 06:08:49;;;;;;;15.60;4.53;;;5.20;99.90;;;;;;5090590;28;20991;-77
2021/12/08 06:11:17;;;;;;;13.70;4.13;;;5.20;99.90;;;;;;5102099;28;20234;-80
2021/12/08 06:13:46;;;;;;;11.47;4.57;;;5.20;99.90;;;;;;5111045;28;21043;-80
2021/12/08 06:16:15;;;;;;;10.23;3.30;;;5.10;99.90;;;;;;5111389;28;20585;-79
2021/12/08 06:18:44;;;;;;;11.93;4.17;;;5.20;99.90;;;;;;5091681;28;20216;-81
2021/12/08 06:21:12;;;;;;;15.33;5.00;;;5.20;99.90;;;;;;5090681;28;20213;-81
2021/12/08 06:23:43;;;;;;;11.27;3.80;;;5.20;99.90;;;;;;5089311;28;20293;-77
2021/12/08 06:26:12;;;;;;;12.67;4.10;;;5.10;99.90;;;;;;5091303;28;20207;-84
2021/12/08 06:28:39;;;;;;;12.27;3.33;;;5.20;99.90;;;;;;5090834;28;20224;-81
2021/12/08 06:31:07;;;;;;;12.37;3.77;;;5.10;99.90;;;;;;5092302;28;20204;-80
2021/12/08 06:33:34;;;;;;;11.67;3.93;;;5.10;99.90;;;;;;5090305;28;20216;-84
2021/12/08 06:36:06;;;;;;;13.07;3.77;;;5.10;99.90;;;;;;5090224;28;20228;-79
2021/12/08 06:38:34;;;;;;;9.30;3.80;;;5.10;99.90;;;;;;5090417;28;20189;-82
2021/12/08 06:41:07;;;;;;;13.37;3.07;;;5.00;99.90;;;;;;5089769;28;20212;-80
2021/12/08 06:43:37;;;;;;;9.27;3.13;;;5.00;99.90;;;;;;5090277;28;20193;-82
2021/12/08 06:46:04;;;;;;;10.37;3.57;;;5.10;99.90;;;;;;5094840;28;20204;-78
2021/12/08 06:48:37;;;;;;;10.00;4.00;;;5.10;99.90;;;;;;5090995;28;20208;-79
2021/12/08 06:51:07;;;;;;;7.50;3.43;;;5.10;99.90;;;;;;5103339;28;20212;-83
2021/12/08 06:53:35;;;;;;;11.17;3.10;;;5.10;99.90;;;;;;5112140;28;20200;-85
2021/12/08 06:56:07;;;;;;;9.97;3.20;;;5.10;99.90;;;;;;5111374;28;20243;-84
2021/12/08 06:58:39;;;;;;;7.30;2.87;;;5.10;99.90;;;;;;5111721;28;20203;-84
2021/12/08 07:01:16;;;;;;;11.77;3.60;;;5.00;99.90;;;;;;5095491;28;20224;-83
2021/12/08 07:03:51;;;;;;;12.17;3.70;;;5.00;99.90;;;;;;5091577;28;20204;-85
2021/12/08 07:06:43;;;;;;;9.90;3.10;;;5.00;99.90;;;;;;5091073;28;20195;-86
2021/12/08 07:09:14;;;;;;;8.57;2.73;;;5.00;99.90;;;;;;5096459;28;20210;-79
2021/12/08 07:11:42;;;;;;;8.53;3.40;;;5.00;99.90;;;;;;5111851;28;20208;-85
2021/12/08 07:14:11;;;;;;;11.00;3.13;;;5.00;99.90;;;;;;5112745;28;20196;-81
2021/12/08 07:16:42;;;;;;;7.40;2.83;;;5.00;99.90;;;;;;5110645;28;20223;-78
2021/12/08 07:19:21;;;;;;;13.37;3.87;;;5.00;99.90;;;;;;5092156;28;20203;-84
2021/12/08 07:21:50;;;;;;;10.60;3.40;;;5.00;99.90;;;;;;5108564;28;20300;-80
2021/12/08 07:24:19;;;;;;;16.07;3.17;;;5.00;99.90;;;;;;5111564;28;20578;-86
2021/12/08 07:26:50;;;;;;;8.00;2.90;;;5.00;99.90;;;;;;5111985;28;20564;-80
2021/12/08 07:29:22;;;;;;;11.80;3.20;;;5.00;99.90;;;;;;5109312;28;20227;-84
2021/12/08 07:31:53;;;;;;;10.03;2.93;;;5.00;99.90;;;;;;5089463;28;20223;-78
2021/12/08 07:34:22;;;;;;;13.63;3.90;;;5.00;99.90;;;;;;5089937;28;20203;-81
2021/12/08 07:36:53;;;;;;;9.07;3.20;;;5.00;99.90;;;;;;5086602;28;20220;-79
2021/12/08 07:39:26;;;;;;;14.37;3.27;;;4.90;99.90;;;;;;5089036;28;20849;-80
2021/12/08 07:42:00;;;;;;;15.07;3.53;;;4.90;99.90;;;;;;5090136;28;20500;-80
2021/12/08 07:44:27;;;;;;;15.70;3.80;;;4.90;99.90;;;;;;5090445;28;20204;-83
2021/12/08 07:46:57;;;;;;;9.50;3.83;;;4.90;99.90;;;;;;5097401;28;20208;-84
2021/12/08 07:49:28;;;;;;;16.33;4.50;;;4.90;99.90;;;;;;5109684;28;20187;-81
2021/12/08 07:52:00;;;;;;;16.60;3.63;;;4.90;99.90;;;;;;5108166;28;20207;-81
2021/12/08 07:54:29;;;;;;;12.33;3.50;;;4.90;99.90;;;;;;5106205;28;20200;-79
2021/12/08 07:57:01;;;;;;;15.43;4.40;;;4.90;99.90;;;;;;5089192;28;20232;-79
2021/12/08 07:59:29;;;;;;;13.83;3.30;;;4.90;99.90;;;;;;5088651;28;20192;-78
2021/12/08 08:01:59;;;;;;;16.20;4.10;;;4.90;99.90;;;;;;5107955;28;20211;-79
2021/12/08 08:04:28;;;;;;;13.83;3.73;;;4.90;99.90;;;;;;5110034;28;20207;-83
2021/12/08 08:06:59;;;;;;;10.67;3.50;;;4.90;99.90;;;;;;5110709;28;20200;-83
2021/12/08 08:09:31;;;;;;;10.53;3.80;;;4.90;99.90;;;;;;5099792;28;20640;-83
2021/12/08 08:12:45;;;;;;;11.70;3.83;;;4.90;99.90;;;;;;5090222;28;20204;-82
2021/12/08 08:15:20;;;;;;;15.77;3.87;;;4.90;99.90;;;;;;5090343;28;20270;-85
2021/12/08 08:17:50;;;;;;;13.17;4.13;;;5.00;99.90;;;;;;5090591;28;20192;-84
2021/12/08 08:20:22;;;;;;;12.23;4.17;;;5.00;99.90;;;;;;5089902;28;20295;-83
2021/12/08 08:22:49;;;;;;;10.83;4.53;;;5.00;99.90;;;;;;5090036;28;20196;-82
2021/12/08 08:25:20;;;;;;;15.30;5.03;;;5.00;99.90;;;;;;5089888;28;20196;-80
2021/12/08 08:27:48;;;;;;;11.90;4.17;;;5.00;99.90;;;;;;5093826;28;20236;-82
2021/12/08 08:30:21;;;;;;;11.90;3.73;;;5.10;99.90;;;;;;5044397;28;20540;-80
2021/12/08 08:32:50;;;;;;;11.90;4.40;;;5.10;99.90;;;;;;5107932;28;20188;-81
2021/12/08 08:35:20;;;;;;;17.33;4.80;;;5.10;99.90;;;;;;5108503;28;20204;-80
2021/12/08 08:37:48;;;;;;;11.60;3.93;;;5.10;99.90;;;;;;5095507;28;20211;-82
2021/12/08 08:40:21;;;;;;;13.30;4.00;;;5.10;99.90;;;;;;5088767;28;20265;-81
2021/12/08 08:42:51;;;;;;;9.57;4.80;;;5.10;99.90;;;;;;5088646;28;20196;-82
2021/12/08 08:45:22;;;;;;;12.13;3.50;;;5.10;99.90;;;;;;5097799;28;20277;-84
2021/12/08 08:47:52;;;;;;;12.80;4.20;;;5.20;99.90;;;;;;5087876;28;20199;-81
2021/12/08 08:50:24;;;;;;;10.03;3.97;;;5.20;99.90;;;;;;5097468;28;20204;-81
2021/12/08 08:52:54;;;;;;;11.17;3.80;;;5.20;99.90;;;;;;5108512;28;20203;-82
2021/12/08 08:55:38;;;;;;;14.27;5.13;;;5.20;99.90;;;;;;5107383;28;20254;-81
2021/12/08 08:58:08;;;;;;;10.73;4.70;;;5.20;99.90;;;;;;5107243;28;20511;-80
2021/12/08 09:00:42;;;;;;;15.10;5.13;;;5.30;99.90;;;;;;5087183;28;20205;-81
2021/12/08 09:03:14;;;;;;;13.57;4.87;;;5.30;99.90;;;;;;5086366;28;20208;-80
2021/12/08 09:05:45;;;;;;;11.77;4.73;;;5.30;99.90;;;;;;5088556;28;20200;-81
2021/12/08 09:08:15;;;;;;;10.97;4.40;;;5.30;99.90;;;;;;5088564;28;20215;-80
2021/12/08 09:10:47;;;;;;;10.80;4.23;;;5.40;99.90;;;;;;5088216;28;20200;-83
2021/12/08 09:13:18;;;;;;;10.67;3.70;;;5.40;99.90;;;;;;5089452;28;20744;-83
2021/12/08 09:15:50;;;;;;;7.67;4.13;;;5.50;99.90;;;;;;5088193;28;20616;-83
2021/12/08 09:18:21;;;;;;;12.30;4.13;;;5.50;99.90;;;;;;5088982;28;20196;-81
2021/12/08 09:20:57;;;;;;;13.57;4.70;;;5.50;99.90;;;;;;5087699;28;20208;-83
2021/12/08 09:23:27;;;;;;;14.37;4.70;;;5.50;99.90;;;;;;5088159;28;20215;-84
2021/12/08 09:25:58;;;;;;;8.93;4.30;;;5.50;99.90;;;;;;5089730;28;20195;-82
2021/12/08 09:28:29;;;;;;;9.70;5.27;;;5.50;99.90;;;;;;5089498;28;20527;-83
2021/12/08 09:31:03;;;;;;;10.17;4.00;;;5.50;99.90;;;;;;5090078;28;20207;-82
2021/12/08 09:33:37;;;;;;;9.53;3.37;;;5.50;99.90;;;;;;5089373;28;20319;-81
2021/12/08 09:36:11;;;;;;;8.33;3.10;;;5.50;99.90;;;;;;5089437;28;20606;-81
2021/12/08 09:38:42;;;;;;;9.27;4.13;;;5.60;99.90;;;;;;5088387;28;20227;-81
2021/12/08 09:41:13;;;;;;;14.60;3.90;;;5.60;99.90;;;;;;5089825;28;20250;-81
2021/12/08 09:43:43;;;;;;;11.00;4.33;;;5.60;99.90;;;;;;5087876;28;20232;-79
2021/12/08 09:46:14;;;;;;;10.57;3.67;;;5.60;99.90;;;;;;5088644;28;20259;-80
2021/12/08 09:48:45;;;;;;;9.13;3.20;;;5.70;99.90;;;;;;5086939;28;20203;-81
2021/12/08 09:51:14;;;;;;;7.47;3.57;;;5.70;99.90;;;;;;5087711;28;20189;-83
2021/12/08 09:53:44;;;;;;;7.63;3.80;;;5.70;99.90;;;;;;5106438;28;20206;-78
2021/12/08 09:56:11;;;;;;;12.40;4.03;;;5.70;99.90;;;;;;5110641;28;20239;-81
2021/12/08 09:58:39;;;;;;;11.33;5.80;;;5.70;99.90;;;;;;5094430;28;20217;-81
2021/12/08 10:01:09;;;;;;;13.70;4.87;;;5.80;99.90;;;;;;5087001;28;20257;-79
2021/12/08 10:03:37;;;;;;;9.60;5.00;;;5.80;99.90;;;;;;5086903;28;20203;-78
2021/12/08 10:06:04;;;;;;;10.30;4.47;;;5.80;99.90;;;;;;5086052;28;20609;-81
2021/12/08 10:08:31;;;;;;;13.47;4.90;;;5.80;99.90;;;;;;5086381;28;20207;-80
2021/12/08 10:10:58;;;;;;;11.20;4.67;;;5.80;99.90;;;;;;5086077;28;20638;-78
2021/12/08 10:13:25;;;;;;;10.17;4.37;;;5.80;99.90;;;;;;5085777;28;20211;-79
2021/12/08 10:15:51;;;;;;;14.17;5.20;;;5.90;99.90;;;;;;5086479;28;20505;-79
2021/12/08 10:18:18;;;;;;;7.07;5.00;;;5.90;99.90;;;;;;5086451;28;20208;-80
2021/12/08 10:20:50;;;;;;;7.57;4.13;;;6.00;99.90;;;;;;5084870;28;20196;-79
2021/12/08 10:23:24;;;;;;;14.63;5.10;;;6.00;99.90;;;;;;5085626;28;20214;-80
2021/12/08 10:25:53;;;;;;;13.87;4.97;;;6.00;99.90;;;;;;5085633;28;20923;-80
2021/12/08 10:28:22;;;;;;;9.40;4.83;;;6.00;99.90;;;;;;5085602;28;20225;-80
2021/12/08 10:30:53;;;;;;;7.53;4.90;;;6.10;99.90;;;;;;5095055;28;20208;-80
2021/12/08 10:33:49;;;;;;;13.13;6.00;;;6.10;99.90;;;;;;5105438;28;20204;-79
2021/12/08 10:36:35;;;;;;;10.53;5.57;;;6.10;99.90;;;;;;5107492;28;20227;-79
2021/12/08 10:39:06;;;;;;;11.30;5.17;;;6.10;99.90;;;;;;5105680;28;20222;-80
2021/12/08 10:42:00;;;;;;;11.23;4.87;;;6.20;99.90;;;;;;5088813;28;20193;-81
2021/12/08 10:44:31;;;;;;;6.03;4.20;;;6.30;99.90;;;;;;5096409;28;20215;-80
2021/12/08 10:46:59;;;;;;;11.83;4.90;;;6.30;99.90;;;;;;5109360;28;20854;-80
2021/12/08 10:54:24;;;;;;;10.37;4.73;;;6.40;99.90;;;;;;5105222;28;20224;-82
2021/12/08 10:55:04;;;;;;;9.10;5.23;;;6.40;99.90;;;;;;5089280;28;20789;-81
2021/12/08 10:57:34;;;;;;;9.80;4.97;;;6.40;99.90;;;;;;5089214;28;20225;-81
2021/12/08 11:00:07;;;;;;;7.60;4.87;;;6.40;99.90;;;;;;5089876;28;20277;-79
2021/12/08 11:02:45;;;;;;;9.17;5.07;;;6.40;99.90;;;;;;5089118;28;20617;-81
2021/12/08 11:05:44;;;;;;;6.83;5.40;;;6.40;99.90;;;;;;5088697;28;20196;-81
2021/12/08 11:08:17;;;;;;;8.23;5.00;;;6.40;99.90;;;;;;5088172;28;20201;-81
2021/12/08 11:10:47;;;;;;;9.00;5.43;;;6.40;99.90;;;;;;5088995;28;20205;-81
2021/12/08 11:13:16;;;;;;;7.47;4.73;;;6.40;99.90;;;;;;5089116;28;20212;-80
2021/12/08 11:15:44;;;;;;;8.60;5.17;;;6.40;99.90;;;;;;5088268;28;20205;-80
2021/12/08 11:18:15;;;;;;;15.47;5.63;;;6.40;99.90;;;;;;5089459;28;20231;-80
2021/12/08 11:20:47;;;;;;;10.77;5.90;;;6.40;99.90;;;;;;5088681;28;20192;-79
2021/12/08 11:23:26;;;;;;;9.97;5.73;;;6.40;99.90;;;;;;5088930;28;20227;-81
2021/12/08 11:25:53;;;;;;;11.30;5.27;;;6.40;99.90;;;;;;5089258;28;20205;-80
2021/12/08 11:28:23;;;;;;;8.77;5.37;;;6.40;99.90;;;;;;5088956;28;20224;-80
2021/12/08 11:30:52;;;;;;;13.47;5.93;;;6.40;99.90;;;;;;5088955;28;20810;-80
2021/12/08 11:33:22;;;;;;;9.00;5.17;;;6.50;99.90;;;;;;5089246;28;20596;-81
2021/12/08 11:36:05;;;;;;;7.83;5.03;;;6.50;99.90;;;;;;5088328;28;20236;-82
2021/12/08 11:38:34;;;;;;;9.57;4.77;;;6.50;99.90;;;;;;5087496;28;20615;-81
2021/12/08 11:41:00;;;;;;;9.77;5.30;;;6.60;99.90;;;;;;5088671;28;20921;-81
2021/12/08 11:43:30;;;;;;;9.33;4.87;;;6.60;99.90;;;;;;5088328;28;20730;-80
2021/12/08 11:46:13;;;;;;;6.20;3.97;;;6.70;99.90;;;;;;5094965;28;20315;-80
2021/12/08 11:48:54;;;;;;;5.77;3.87;;;6.70;99.90;;;;;;5088539;28;20250;-78
2021/12/08 11:51:21;;;;;;;6.73;4.20;;;6.80;99.90;;;;;;5088045;28;20853;-81
2021/12/08 11:53:49;;;;;;;5.83;3.97;;;6.90;99.90;;;;;;5089273;28;20209;-81
2021/12/08 11:56:34;;;;;;;9.00;3.70;;;6.90;99.90;;;;;;5088733;28;20240;-81
2021/12/08 11:59:01;;;;;;;5.70;3.60;;;7.00;99.90;;;;;;5088173;28;20208;-80
2021/12/08 12:01:29;;;;;;;7.70;3.27;;;7.00;99.90;;;;;;5088607;28;20498;-81
2021/12/08 12:03:56;;;;;;;4.60;3.00;;;7.00;99.90;;;;;;5087682;28;20299;-81
2021/12/08 12:06:28;;;;;;;4.47;2.67;;;7.00;99.90;;;;;;5087041;28;20208;-81
2021/12/08 12:08:59;;;;;;;7.40;2.77;;;7.00;99.90;;;;;;5087639;28;20222;-82
2021/12/08 12:11:27;;;;;;;10.17;3.40;;;7.00;99.90;;;;;;5088281;28;20885;-81
2021/12/08 12:13:55;;;;;;;6.37;2.57;;;7.00;99.90;;;;;;5095981;28;20203;-81
2021/12/08 12:16:22;;;;;;;6.07;3.53;;;7.00;99.90;;;;;;5109203;28;20204;-80
2021/12/08 12:18:52;;;;;;;9.37;3.20;;;7.10;99.90;;;;;;5107968;28;20210;-80
2021/12/08 12:21:33;;;;;;;8.77;2.93;;;7.10;99.90;;;;;;5095979;28;20212;-80
2021/12/08 12:24:13;;;;;;;7.27;3.10;;;7.10;99.90;;;;;;5088654;28;20235;-80
2021/12/08 12:26:53;;;;;;;8.07;3.53;;;7.10;99.90;;;;;;5086451;28;20192;-81
2021/12/08 12:29:28;;;;;;;8.97;3.00;;;7.10;99.90;;;;;;5089621;28;20224;-80
2021/12/08 12:32:02;;;;;;;6.17;3.03;;;7.00;99.90;;;;;;5108419;28;20191;-79
2021/12/08 12:34:32;;;;;;;5.70;2.80;;;7.10;99.90;;;;;;5093100;28;20211;-80
2021/12/08 12:37:03;;;;;;;6.07;3.17;;;7.10;99.90;;;;;;5088143;28;20224;-80
2021/12/08 12:39:31;;;;;;;7.90;3.13;;;7.00;99.90;;;;;;5086829;28;20605;-79
2021/12/08 12:42:11;;;;;;;7.57;3.37;;;7.10;99.90;;;;;;5108474;28;20212;-80
2021/12/08 12:44:40;;;;;;;6.83;2.80;;;7.00;99.90;;;;;;5107906;28;20206;-80
2021/12/08 12:47:31;;;;;;;5.10;2.63;;;7.10;99.90;;;;;;5086989;28;20212;-80
2021/12/08 12:50:21;;;;;;;5.67;2.50;;;7.10;99.90;;;;;;5067766;28;20200;-82
2021/12/08 12:52:54;;;;;;;6.10;3.00;;;7.10;99.90;;;;;;5087866;28;20200;-79
2021/12/08 12:55:25;;;;;;;7.80;3.23;;;7.10;99.90;;;;;;5087307;28;20239;-82
2021/12/08 12:58:19;;;;;;;5.80;3.00;;;7.20;99.90;;;;;;5087638;28;20236;-81
2021/12/08 13:00:49;;;;;;;7.43;2.43;;;7.10;99.90;;;;;;5086907;28;20600;-80
2021/12/08 13:03:45;;;;;;;10.90;3.13;;;7.10;99.90;;;;;;5088358;28;20201;-81
2021/12/08 13:06:14;;;;;;;8.53;3.57;;;7.10;99.90;;;;;;5088179;28;20200;-81
2021/12/08 13:08:43;;;;;;;5.27;2.30;;;7.20;99.90;;;;;;5087467;28;20208;-80
2021/12/08 13:11:45;;;;;;;6.90;2.67;;;7.20;99.90;;;;;;5094240;28;20206;-79
2021/12/08 13:14:24;;;;;;;6.57;2.50;;;7.20;99.90;;;;;;5103332;28;20213;-81
2021/12/08 13:17:16;;;;;;;9.83;2.33;;;7.20;99.90;;;;;;5107450;28;20256;-81
2021/12/08 13:19:46;;;;;;;9.73;3.20;;;7.20;99.90;;;;;;5106700;28;20211;-80
2021/12/08 13:22:49;;;;;;;7.83;2.87;;;7.30;99.90;;;;;;5090232;28;20672;-79
2021/12/08 13:25:25;;;;;;;8.57;2.90;;;7.20;99.90;;;;;;5083638;28;20619;-80
2021/12/08 13:27:56;;;;;;;5.33;3.00;;;7.20;99.90;;;;;;5087551;28;20303;-79
2021/12/08 13:30:27;;;;;;;4.97;2.70;;;7.10;99.90;;;;;;5085759;28;20200;-81
2021/12/08 13:33:07;;;;;;;11.23;3.90;;;7.10;99.90;;;;;;5087536;28;20865;-80
2021/12/08 13:35:36;;;;;;;5.23;2.60;;;7.10;99.90;;;;;;5107424;28;20203;-82
2021/12/08 13:38:04;;;;;;;5.30;2.67;;;7.10;99.90;;;;;;5098607;28;20230;-80
2021/12/08 13:40:43;;;;;;;6.40;2.70;;;7.10;99.90;;;;;;5098977;28;20663;-81
2021/12/08 13:43:31;;;;;;;8.97;3.40;;;7.00;99.90;;;;;;5085842;28;20222;-80